Time;durP1;ratioP1;P1;durP2;ratioP2;P2;SDS_P1;SDS_P2;PMS_P1;PMS_P2;Temp;Humidity;BMP_temperature;BMP_pressure;BME280_temperature;BME280_humidity;BME280_pressure;Samples;Min_cycle;Max_cycle;Signal;HPM_P1;HPM_P2
2021/10/10 00:00:52;;;;;;;6.10;5.50;;;;;16.90;99239.00;;;;5056900;28;20195;-89
2021/10/10 00:03:19;;;;;;;6.17;5.67;;;;;16.90;99232.00;;;;5057035;28;20230;-90
2021/10/10 00:05:45;;;;;;;5.27;4.87;;;;;16.90;99237.00;;;;5057016;28;20249;-90
2021/10/10 00:08:12;;;;;;;5.70;5.30;;;;;16.90;99239.00;;;;5056893;28;20203;-90
2021/10/10 00:10:39;;;;;;;5.53;5.13;;;;;16.90;99241.00;;;;5056869;28;20225;-90
2021/10/10 00:13:05;;;;;;;5.20;4.80;;;;;16.90;99244.00;;;;5056819;28;20199;-90
2021/10/10 00:15:33;;;;;;;5.60;5.20;;;;;16.80;99235.00;;;;5041020;28;20258;-90
2021/10/10 00:17:59;;;;;;;6.13;5.63;;;;;16.80;99243.00;;;;5056878;28;20201;-90
2021/10/10 00:20:26;;;;;;;5.57;5.17;;;;;16.80;99249.00;;;;5056806;28;20604;-90
2021/10/10 00:22:53;;;;;;;5.97;5.47;;;;;16.80;99238.00;;;;5056601;28;20648;-90
2021/10/10 00:25:19;;;;;;;6.17;5.67;;;;;16.80;99244.00;;;;5056913;28;20193;-90
2021/10/10 00:27:46;;;;;;;5.67;5.23;;;;;16.80;99245.00;;;;5056708;28;20196;-90
2021/10/10 00:30:12;;;;;;;5.80;5.30;;;;;16.80;99254.00;;;;5056552;28;20767;-90
2021/10/10 00:32:39;;;;;;;5.73;5.20;;;;;16.80;99247.00;;;;5056992;28;20213;-90
2021/10/10 00:35:06;;;;;;;6.17;5.67;;;;;16.80;99245.00;;;;5040263;28;20234;-90
2021/10/10 00:37:32;;;;;;;5.70;5.30;;;;;16.80;99235.00;;;;5056604;28;20257;-90
2021/10/10 00:39:59;;;;;;;5.50;5.10;;;;;16.80;99245.00;;;;5056603;28;20262;-90
2021/10/10 00:42:26;;;;;;;5.40;5.00;;;;;16.70;99242.00;;;;5056906;28;20199;-90
2021/10/10 00:44:52;;;;;;;5.67;5.17;;;;;16.70;99233.00;;;;5056514;28;20192;-90
2021/10/10 00:47:19;;;;;;;5.73;5.33;;;;;16.70;99234.00;;;;5056458;28;20207;-90
2021/10/10 00:49:46;;;;;;;5.27;4.87;;;;;16.70;99227.00;;;;5040124;28;20193;-91
2021/10/10 00:52:16;;;;;;;5.30;4.90;;;;;16.70;99239.00;;;;5056772;28;20216;-91
2021/10/10 00:54:48;;;;;;;5.07;4.77;;;;;16.70;99243.00;;;;5057120;28;20661;-91
2021/10/10 00:57:16;;;;;;;5.47;5.07;;;;;16.70;99236.00;;;;5077926;28;20203;-91
2021/10/10 00:59:44;;;;;;;5.50;5.10;;;;;16.70;99245.00;;;;5060004;28;20202;-91
2021/10/10 01:02:12;;;;;;;5.63;5.13;;;;;16.60;99238.00;;;;5059859;28;20211;-91
2021/10/10 01:04:40;;;;;;;5.37;4.97;;;;;16.70;99235.00;;;;5060113;28;20273;-91
2021/10/10 01:07:07;;;;;;;5.00;4.60;;;;;16.60;99233.00;;;;5060080;28;20203;-91
2021/10/10 01:09:37;;;;;;;5.97;5.47;;;;;16.60;99237.00;;;;5059798;28;20193;-91
2021/10/10 01:12:06;;;;;;;5.43;5.03;;;;;16.60;99236.00;;;;5043381;28;20230;-91
2021/10/10 01:14:33;;;;;;;5.57;5.07;;;;;16.60;99236.00;;;;5060113;28;20203;-91
2021/10/10 01:17:00;;;;;;;5.40;5.00;;;;;16.60;99236.00;;;;5060621;28;20633;-91
2021/10/10 01:19:29;;;;;;;5.50;5.10;;;;;16.60;99218.00;;;;5059948;28;20193;-91
2021/10/10 01:21:58;;;;;;;5.33;4.93;;;;;16.60;99215.00;;;;5077210;28;20184;-91
2021/10/10 01:24:25;;;;;;;5.50;5.07;;;;;16.60;99226.00;;;;5059492;28;20518;-92
2021/10/10 01:26:52;;;;;;;5.37;4.90;;;;;16.60;99229.00;;;;5059971;28;20509;-91
2021/10/10 01:29:19;;;;;;;5.17;4.77;;;;;16.60;99229.00;;;;5059707;28;20191;-91
2021/10/10 01:31:45;;;;;;;5.80;5.30;;;;;16.60;99225.00;;;;5042906;28;20543;-91
2021/10/10 01:34:12;;;;;;;5.33;4.93;;;;;16.60;99219.00;;;;5042976;28;20199;-92
2021/10/10 01:36:40;;;;;;;6.00;5.50;;;;;16.60;99225.00;;;;5059404;28;20237;-91
2021/10/10 01:39:07;;;;;;;5.57;5.13;;;;;16.50;99224.00;;;;5059471;28;20191;-92
2021/10/10 01:41:34;;;;;;;4.90;4.60;;;;;16.50;99210.00;;;;5076870;28;20195;-92
2021/10/10 01:44:01;;;;;;;5.60;5.20;;;;;16.50;99215.00;;;;5059199;28;20578;-91
2021/10/10 01:46:27;;;;;;;5.77;5.27;;;;;16.50;99215.00;;;;5059146;28;20200;-92
2021/10/10 01:48:54;;;;;;;5.03;4.70;;;;;16.50;99212.00;;;;5059424;28;20197;-92
2021/10/10 01:51:21;;;;;;;5.17;4.77;;;;;16.50;99210.00;;;;5058998;28;20223;-92
2021/10/10 01:53:47;;;;;;;5.00;4.60;;;;;16.50;99200.00;;;;5059076;28;20200;-92
2021/10/10 01:56:16;;;;;;;5.30;4.90;;;;;16.50;99195.00;;;;5058993;28;20220;-92
2021/10/10 01:58:43;;;;;;;5.27;4.87;;;;;16.50;99185.00;;;;5059007;28;20198;-92
2021/10/10 02:01:09;;;;;;;5.17;4.77;;;;;16.50;99187.00;;;;5042976;28;20261;-92
2021/10/10 02:03:36;;;;;;;5.80;5.30;;;;;16.50;99210.00;;;;5058779;28;20203;-92
2021/10/10 02:06:03;;;;;;;5.23;4.83;;;;;16.50;99201.00;;;;5058424;28;20203;-92
2021/10/10 02:08:29;;;;;;;5.90;5.40;;;;;16.50;99201.00;;;;5058704;28;20196;-92
2021/10/10 02:10:56;;;;;;;5.57;5.13;;;;;16.50;99196.00;;;;5059140;28;20220;-93
2021/10/10 02:13:23;;;;;;;5.37;4.97;;;;;16.50;99197.00;;;;5042712;28;20206;-92
2021/10/10 02:15:49;;;;;;;5.57;5.10;;;;;16.40;99192.00;;;;5058711;28;20698;-92
2021/10/10 02:18:16;;;;;;;5.30;4.90;;;;;16.40;99181.00;;;;5058555;28;20533;-92
2021/10/10 02:20:43;;;;;;;5.53;5.03;;;;;16.40;99196.00;;;;5058626;28;20192;-93
2021/10/10 02:23:09;;;;;;;5.47;5.07;;;;;16.40;99203.00;;;;5058587;28;20303;-93
2021/10/10 02:25:36;;;;;;;5.23;4.83;;;;;16.40;99191.00;;;;5041995;28;20207;-93
2021/10/10 02:28:03;;;;;;;5.97;5.47;;;;;16.40;99190.00;;;;5041909;28;20589;-92
2021/10/10 02:30:30;;;;;;;5.60;5.20;;;;;16.40;99189.00;;;;5041886;28;20196;-93
2021/10/10 02:32:56;;;;;;;5.50;5.10;;;;;16.40;99194.00;;;;5058449;28;20200;-93
2021/10/10 02:35:23;;;;;;;5.40;4.93;;;;;16.40;99190.00;;;;5076189;28;20521;-92
2021/10/10 02:37:50;;;;;;;5.30;4.90;;;;;16.40;99176.00;;;;5058381;28;20199;-93
2021/10/10 02:40:17;;;;;;;5.63;5.13;;;;;16.40;99178.00;;;;5058366;28;20199;-93
2021/10/10 02:42:44;;;;;;;5.30;4.90;;;;;16.40;99183.00;;;;5058337;28;20187;-93
2021/10/10 02:45:11;;;;;;;5.50;5.10;;;;;16.40;99195.00;;;;5058302;28;20511;-93
2021/10/10 02:47:38;;;;;;;5.20;4.80;;;;;16.40;99190.00;;;;5058633;28;20203;-93
2021/10/10 02:50:06;;;;;;;5.50;5.00;;;;;16.40;99190.00;;;;5058191;28;20202;-93
2021/10/10 02:52:32;;;;;;;5.37;4.97;;;;;16.40;99183.00;;;;5041675;28;20219;-93
2021/10/10 02:54:59;;;;;;;5.17;4.77;;;;;16.30;99198.00;;;;5058061;28;20199;-93
2021/10/10 02:57:25;;;;;;;5.70;5.20;;;;;16.30;99186.00;;;;5059379;28;20206;-93
2021/10/10 02:59:52;;;;;;;5.27;4.87;;;;;16.30;99192.00;;;;5058827;28;20632;-93
2021/10/10 03:02:19;;;;;;;5.50;5.10;;;;;16.30;99191.00;;;;5059146;28;20191;-93
2021/10/10 03:04:45;;;;;;;5.20;4.80;;;;;16.30;99188.00;;;;5043076;28;20208;-93
2021/10/10 03:07:12;;;;;;;5.07;4.67;;;;;16.30;99194.00;;;;5058245;28;20193;-93
2021/10/10 03:09:39;;;;;;;5.30;4.90;;;;;16.30;99186.00;;;;5058132;28;20650;-93
2021/10/10 03:12:05;;;;;;;5.57;5.17;;;;;16.30;99184.00;;;;5041956;28;20215;-93
2021/10/10 03:14:32;;;;;;;5.30;4.90;;;;;16.30;99187.00;;;;5058199;28;20201;-93
2021/10/10 03:16:59;;;;;;;5.57;5.17;;;;;16.30;99188.00;;;;5058122;28;20685;-93
2021/10/10 03:19:25;;;;;;;4.93;4.53;;;;;16.30;99193.00;;;;5057818;28;20608;-93
2021/10/10 03:21:52;;;;;;;5.07;4.67;;;;;16.30;99190.00;;;;5058590;28;20194;-93
2021/10/10 03:24:18;;;;;;;5.23;4.83;;;;;16.30;99190.00;;;;5058134;28;20579;-93
2021/10/10 03:26:45;;;;;;;5.30;4.90;;;;;16.30;99188.00;;;;5058450;28;20203;-93
2021/10/10 03:29:12;;;;;;;5.10;4.70;;;;;16.30;99183.00;;;;5058422;28;20199;-93
2021/10/10 03:31:38;;;;;;;4.87;4.50;;;;;16.30;99198.00;;;;5058152;28;20214;-93
2021/10/10 03:34:05;;;;;;;5.37;4.97;;;;;16.30;99192.00;;;;5042043;28;20631;-93
2021/10/10 03:36:31;;;;;;;5.10;4.60;;;;;16.20;99188.00;;;;5058933;28;20194;-93
2021/10/10 03:38:58;;;;;;;5.60;5.10;;;;;16.30;99188.00;;;;5042940;28;20526;-94
2021/10/10 03:41:24;;;;;;;5.10;4.70;;;;;16.20;99190.00;;;;5041777;28;20195;-93
2021/10/10 03:43:52;;;;;;;5.23;4.73;;;;;16.20;99186.00;;;;5058583;28;20203;-94
2021/10/10 03:46:18;;;;;;;5.30;4.90;;;;;16.20;99164.00;;;;5058453;28;20196;-93
2021/10/10 03:48:45;;;;;;;5.33;4.87;;;;;16.20;99181.00;;;;5057925;28;20195;-93
2021/10/10 03:51:12;;;;;;;6.10;5.60;;;;;16.20;99171.00;;;;5041145;28;20215;-93
2021/10/10 03:56:11;;;;;;;5.30;4.90;;;;;16.20;99165.00;;;;5058464;28;20273;-93
2021/10/10 03:58:39;;;;;;;5.10;4.70;;;;;16.20;99172.00;;;;5057654;28;20654;-93
2021/10/10 04:01:05;;;;;;;5.20;4.80;;;;;16.20;99167.00;;;;5041125;28;20511;-93
2021/10/10 04:03:32;;;;;;;5.60;5.10;;;;;16.20;99172.00;;;;5057888;28;20209;-93
2021/10/10 04:06:01;;;;;;;5.20;4.80;;;;;16.20;99166.00;;;;5057999;28;20213;-93
2021/10/10 04:08:28;;;;;;;5.33;4.93;;;;;16.20;99170.00;;;;5058099;28;20277;-93
2021/10/10 04:10:54;;;;;;;4.53;4.23;;;;;16.20;99165.00;;;;5057535;28;20194;-93
2021/10/10 04:13:22;;;;;;;5.37;4.87;;;;;16.20;99169.00;;;;5057745;28;20526;-94
2021/10/10 04:15:49;;;;;;;5.30;4.80;;;;;16.20;99164.00;;;;5058942;28;20563;-93
2021/10/10 04:18:15;;;;;;;5.40;4.90;;;;;16.20;99166.00;;;;5041379;28;20193;-93
2021/10/10 04:20:42;;;;;;;5.27;4.87;;;;;16.10;99174.00;;;;5057833;28;20198;-93
2021/10/10 04:23:08;;;;;;;5.17;4.77;;;;;16.20;99171.00;;;;5041999;28;20205;-93
2021/10/10 04:25:35;;;;;;;5.50;5.10;;;;;16.10;99181.00;;;;5058519;28;20201;-93
2021/10/10 04:28:03;;;;;;;5.17;4.77;;;;;16.10;99174.00;;;;5041808;28;20197;-93
2021/10/10 04:30:30;;;;;;;5.27;4.87;;;;;16.10;99175.00;;;;5061539;28;20289;-93
2021/10/10 04:32:56;;;;;;;5.40;5.00;;;;;16.10;99168.00;;;;5062451;28;20308;-93
2021/10/10 04:35:23;;;;;;;5.10;4.70;;;;;16.10;99163.00;;;;5045786;28;20213;-93
2021/10/10 04:37:49;;;;;;;5.27;4.87;;;;;16.10;99170.00;;;;5062388;28;20214;-93
2021/10/10 04:40:16;;;;;;;5.00;4.60;;;;;16.10;99170.00;;;;5061710;28;20199;-93
2021/10/10 04:42:43;;;;;;;5.63;5.17;;;;;16.10;99179.00;;;;5045178;28;20203;-93
2021/10/10 04:45:09;;;;;;;5.20;4.80;;;;;16.10;99165.00;;;;5045451;28;20205;-93
2021/10/10 04:47:36;;;;;;;5.10;4.70;;;;;16.10;99175.00;;;;5061035;28;20203;-93
2021/10/10 04:50:04;;;;;;;5.10;4.70;;;;;16.10;99176.00;;;;5060886;28;20203;-93
2021/10/10 04:52:31;;;;;;;5.07;4.67;;;;;16.10;99176.00;;;;5061283;28;20213;-93
2021/10/10 04:54:57;;;;;;;5.10;4.70;;;;;16.00;99183.00;;;;5044190;28;20184;-93
2021/10/10 04:57:24;;;;;;;5.07;4.60;;;;;16.10;99164.00;;;;5060859;28;20753;-93
2021/10/10 04:59:51;;;;;;;4.97;4.57;;;;;16.00;99172.00;;;;5060564;28;20623;-93
2021/10/10 05:02:19;;;;;;;5.07;4.67;;;;;16.00;99187.00;;;;5044003;28;20231;-93
2021/10/10 05:04:46;;;;;;;5.13;4.73;;;;;16.00;99182.00;;;;5044468;28;20201;-93
2021/10/10 05:07:13;;;;;;;4.93;4.53;;;;;16.00;99169.00;;;;5060396;28;20198;-93
2021/10/10 05:09:40;;;;;;;5.07;4.67;;;;;16.00;99167.00;;;;5060301;28;20198;-93
2021/10/10 05:12:07;;;;;;;5.20;4.80;;;;;16.10;99176.00;;;;5060197;28;20219;-93
2021/10/10 05:14:34;;;;;;;4.53;4.20;;;;;16.10;99187.00;;;;5060107;28;20287;-93
2021/10/10 05:17:00;;;;;;;5.27;4.87;;;;;16.10;99192.00;;;;5043803;28;20206;-93
2021/10/10 05:19:27;;;;;;;5.17;4.77;;;;;16.10;99181.00;;;;5060103;28;20202;-93
2021/10/10 05:21:54;;;;;;;5.20;4.80;;;;;16.10;99195.00;;;;5059949;28;20199;-93
2021/10/10 05:24:20;;;;;;;4.63;4.33;;;;;16.10;99203.00;;;;5059624;28;20213;-93
2021/10/10 05:26:47;;;;;;;5.10;4.70;;;;;16.10;99189.00;;;;5059597;28;20627;-93
2021/10/10 05:29:14;;;;;;;4.77;4.47;;;;;16.10;99183.00;;;;5059649;28;20202;-93
2021/10/10 05:31:40;;;;;;;4.43;4.03;;;;;16.10;99193.00;;;;5059434;28;20221;-92
2021/10/10 05:34:07;;;;;;;5.10;4.70;;;;;16.10;99190.00;;;;5059665;28;20199;-92
2021/10/10 05:36:34;;;;;;;5.00;4.60;;;;;16.20;99191.00;;;;5059466;28;20233;-92
2021/10/10 05:39:01;;;;;;;5.20;4.80;;;;;16.20;99178.00;;;;5059356;28;20196;-93
2021/10/10 05:41:27;;;;;;;5.00;4.60;;;;;16.30;99185.00;;;;5058574;28;20536;-92
2021/10/10 05:43:54;;;;;;;4.50;4.20;;;;;16.30;99169.00;;;;5059289;28;20188;-92
2021/10/10 05:46:20;;;;;;;5.00;4.60;;;;;16.40;99183.00;;;;5059448;28;20199;-92
2021/10/10 05:48:47;;;;;;;5.27;4.87;;;;;16.40;99187.00;;;;5042648;28;20198;-92
2021/10/10 05:51:14;;;;;;;4.70;4.30;;;;;16.50;99185.00;;;;5076839;28;20206;-92
2021/10/10 05:53:40;;;;;;;4.67;4.37;;;;;16.50;99189.00;;;;5076531;28;20192;-92
2021/10/10 05:56:07;;;;;;;4.73;4.43;;;;;16.50;99172.00;;;;5058943;28;20185;-92
2021/10/10 05:58:39;;;;;;;5.30;4.80;;;;;16.50;99186.00;;;;5058950;28;20194;-92
2021/10/10 06:01:06;;;;;;;5.03;4.63;;;;;16.40;99184.00;;;;5058830;28;20192;-92
2021/10/10 06:03:33;;;;;;;5.20;4.80;;;;;16.40;99181.00;;;;5058899;28;20227;-92
2021/10/10 06:06:00;;;;;;;4.77;4.37;;;;;16.30;99183.00;;;;5059067;28;20672;-92
2021/10/10 06:08:26;;;;;;;4.80;4.40;;;;;16.40;99183.00;;;;5042273;28;20624;-91
2021/10/10 06:10:53;;;;;;;4.90;4.50;;;;;16.40;99180.00;;;;5058737;28;20195;-92
2021/10/10 06:13:39;;;;;;;4.83;4.43;;;;;16.40;99200.00;;;;5058643;28;20318;-92
2021/10/10 06:16:06;;;;;;;4.77;4.47;;;;;16.40;99202.00;;;;5058611;28;20202;-92
2021/10/10 06:18:33;;;;;;;4.63;4.23;;;;;16.50;99170.00;;;;5058739;28;20252;-92
2021/10/10 06:21:00;;;;;;;4.37;4.00;;;;;16.50;99183.00;;;;5058764;28;20208;-92
2021/10/10 06:23:26;;;;;;;4.80;4.40;;;;;16.50;99185.00;;;;5058462;28;20638;-92
2021/10/10 06:25:53;;;;;;;5.10;4.70;;;;;16.50;99194.00;;;;5058509;28;20532;-92
2021/10/10 06:28:20;;;;;;;6.10;4.90;;;;;16.50;99194.00;;;;5042041;28;20734;-92
2021/10/10 06:30:46;;;;;;;4.27;3.97;;;;;16.60;99184.00;;;;5058308;28;20197;-92
2021/10/10 06:33:13;;;;;;;4.73;4.33;;;;;16.60;99191.00;;;;5058781;28;20210;-92
2021/10/10 06:35:40;;;;;;;5.47;4.63;;;;;16.60;99193.00;;;;5058022;28;20210;-92
2021/10/10 06:38:06;;;;;;;5.47;4.60;;;;;16.70;99184.00;;;;5058169;28;20198;-92
2021/10/10 06:40:35;;;;;;;5.30;4.80;;;;;16.70;99183.00;;;;5058069;28;20630;-92
2021/10/10 06:43:02;;;;;;;4.77;4.47;;;;;16.70;99195.00;;;;5058198;28;20201;-92
2021/10/10 06:45:29;;;;;;;4.90;4.40;;;;;16.70;99196.00;;;;5058103;28;20190;-92
2021/10/10 06:47:55;;;;;;;5.10;4.70;;;;;16.80;99201.00;;;;5075831;28;20563;-92
2021/10/10 06:50:22;;;;;;;5.27;4.87;;;;;16.80;99202.00;;;;5058690;28;20200;-92
2021/10/10 06:52:48;;;;;;;5.00;4.60;;;;;16.90;99203.00;;;;5040934;28;20542;-92
2021/10/10 06:55:15;;;;;;;5.00;4.60;;;;;16.90;99199.00;;;;5058058;28;20202;-92
2021/10/10 06:57:42;;;;;;;4.87;4.40;;;;;16.90;99199.00;;;;5058641;28;20199;-92
2021/10/10 07:00:10;;;;;;;5.20;4.77;;;;;16.90;99202.00;;;;5058063;28;20209;-92
2021/10/10 07:02:41;;;;;;;4.97;4.57;;;;;16.90;99196.00;;;;5058774;28;20652;-92
2021/10/10 07:05:13;;;;;;;4.97;4.57;;;;;16.90;99209.00;;;;5058292;28;20222;-92
2021/10/10 07:07:40;;;;;;;4.40;4.10;;;;;16.90;99201.00;;;;5041642;28;20193;-92
2021/10/10 07:10:08;;;;;;;5.00;4.60;;;;;16.90;99199.00;;;;5057834;28;20620;-92
2021/10/10 07:12:35;;;;;;;5.17;4.67;;;;;16.80;99205.00;;;;5057887;28;20214;-93
2021/10/10 07:15:11;;;;;;;4.50;4.20;;;;;16.70;99200.00;;;;5058268;28;20184;-93
2021/10/10 07:17:40;;;;;;;5.00;4.60;;;;;16.70;99205.00;;;;5041443;28;20222;-93
2021/10/10 07:20:15;;;;;;;5.00;4.50;;;;;16.70;99208.00;;;;5057780;28;20206;-92
2021/10/10 07:23:02;;;;;;;4.73;4.33;;;;;16.70;99205.00;;;;5057417;28;20182;-92
2021/10/10 07:25:29;;;;;;;4.90;4.50;;;;;16.60;99210.00;;;;5057481;28;20203;-92
2021/10/10 07:27:55;;;;;;;5.53;5.13;;;;;16.60;99210.00;;;;5057439;28;20662;-93
2021/10/10 07:30:22;;;;;;;5.07;4.63;;;;;16.60;99212.00;;;;5057651;28;20202;-92
2021/10/10 07:32:49;;;;;;;5.70;5.20;;;;;16.60;99208.00;;;;5040848;28;20255;-93
2021/10/10 07:35:15;;;;;;;4.90;4.50;;;;;16.50;99212.00;;;;5042013;28;20203;-93
2021/10/10 07:37:42;;;;;;;5.53;5.03;;;;;16.50;99217.00;;;;5057757;28;20200;-93
2021/10/10 07:40:09;;;;;;;5.30;4.90;;;;;16.50;99218.00;;;;5057380;28;20201;-93
2021/10/10 07:42:35;;;;;;;6.10;5.50;;;;;16.50;99223.00;;;;5057335;28;20195;-93
2021/10/10 07:45:08;;;;;;;5.33;4.87;;;;;16.50;99224.00;;;;5057237;28;20192;-93
2021/10/10 07:47:47;;;;;;;5.10;4.70;;;;;16.50;99212.00;;;;5057305;28;20189;-93
2021/10/10 07:50:14;;;;;;;5.43;5.03;;;;;16.50;99217.00;;;;5057485;28;20273;-93
2021/10/10 07:52:41;;;;;;;5.30;4.83;;;;;16.40;99220.00;;;;5057290;28;20209;-93
2021/10/10 07:55:08;;;;;;;5.00;4.60;;;;;16.50;99224.00;;;;5057895;28;20627;-92
2021/10/10 07:57:35;;;;;;;4.90;4.50;;;;;16.50;99217.00;;;;5040771;28;20206;-92
2021/10/10 08:00:03;;;;;;;5.13;4.70;;;;;16.50;99224.00;;;;5057284;28;20215;-92
2021/10/10 08:02:54;;;;;;;5.03;4.63;;;;;16.60;99213.00;;;;5058162;28;20264;-91
2021/10/10 08:05:23;;;;;;;5.23;4.83;;;;;16.60;99235.00;;;;5060286;28;20575;-91
2021/10/10 08:07:52;;;;;;;4.70;4.30;;;;;16.60;99219.00;;;;5061169;28;20201;-91
2021/10/10 08:10:19;;;;;;;5.17;4.77;;;;;16.60;99228.00;;;;5061046;28;20194;-91
2021/10/10 08:12:46;;;;;;;5.23;4.83;;;;;16.60;99231.00;;;;5061180;28;20713;-91
2021/10/10 08:15:13;;;;;;;4.83;4.43;;;;;16.60;99235.00;;;;5061527;28;20191;-89
2021/10/10 08:17:40;;;;;;;4.93;4.53;;;;;16.60;99231.00;;;;5061161;28;20188;-91
2021/10/10 08:20:08;;;;;;;5.00;4.60;;;;;16.60;99235.00;;;;5060760;28;20524;-90
2021/10/10 08:22:36;;;;;;;4.43;4.13;;;;;16.70;99240.00;;;;5061045;28;20191;-90
2021/10/10 08:25:07;;;;;;;5.00;4.60;;;;;16.70;99248.00;;;;5060824;28;20276;-90
2021/10/10 08:27:34;;;;;;;5.03;4.63;;;;;16.70;99253.00;;;;5060683;28;20199;-91
2021/10/10 08:30:03;;;;;;;4.50;4.20;;;;;16.60;99249.00;;;;5060679;28;20253;-89
2021/10/10 08:32:30;;;;;;;5.07;4.70;;;;;16.70;99242.00;;;;5060540;28;20310;-90
2021/10/10 08:34:57;;;;;;;5.03;4.63;;;;;16.70;99252.00;;;;5044008;28;20199;-90
2021/10/10 08:37:23;;;;;;;5.13;4.70;;;;;16.70;99252.00;;;;5060391;28;20202;-90
2021/10/10 08:39:50;;;;;;;4.90;4.50;;;;;16.80;99240.00;;;;5060642;28;20264;-90
2021/10/10 08:42:21;;;;;;;4.70;4.30;;;;;16.80;99237.00;;;;5060741;28;20712;-89
2021/10/10 08:44:52;;;;;;;5.10;4.67;;;;;16.80;99229.00;;;;5043949;28;20593;-89
2021/10/10 08:47:21;;;;;;;5.40;5.00;;;;;16.80;99243.00;;;;5060320;28;20187;-89
2021/10/10 08:49:48;;;;;;;4.60;4.30;;;;;16.80;99242.00;;;;5060848;28;20197;-90
2021/10/10 08:52:15;;;;;;;4.90;4.50;;;;;16.80;99243.00;;;;5060243;28;20269;-90
2021/10/10 08:54:50;;;;;;;5.30;4.90;;;;;16.80;99242.00;;;;5060098;28;20209;-89
2021/10/10 08:57:17;;;;;;;5.07;4.57;;;;;16.80;99233.00;;;;5043655;28;20208;-90
2021/10/10 08:59:49;;;;;;;4.90;4.60;;;;;16.80;99227.00;;;;5043500;28;20659;-89
2021/10/10 09:02:25;;;;;;;4.80;4.47;;;;;16.80;99234.00;;;;5060239;28;20183;-89
2021/10/10 09:04:52;;;;;;;4.67;4.27;;;;;16.80;99243.00;;;;5060062;28;20191;-89
2021/10/10 09:07:19;;;;;;;4.87;4.47;;;;;16.80;99229.00;;;;5043280;28;20203;-89
2021/10/10 09:09:45;;;;;;;5.47;5.07;;;;;16.80;99227.00;;;;5059792;28;20257;-89
2021/10/10 09:12:13;;;;;;;5.50;5.10;;;;;16.70;99241.00;;;;5077460;28;20205;-88
2021/10/10 09:14:47;;;;;;;4.80;4.40;;;;;16.70;99245.00;;;;5059765;28;20207;-88
2021/10/10 09:17:19;;;;;;;5.23;4.80;;;;;16.70;99232.00;;;;5058807;28;20548;-88
2021/10/10 09:19:58;;;;;;;5.60;5.20;;;;;16.70;99241.00;;;;5059751;28;20191;-89
2021/10/10 09:22:26;;;;;;;4.87;4.47;;;;;16.70;99233.00;;;;5060040;28;20226;-86
2021/10/10 09:25:07;;;;;;;5.80;5.23;;;;;16.80;99232.00;;;;5060299;28;20253;-89
2021/10/10 09:27:35;;;;;;;5.60;5.20;;;;;16.90;99215.00;;;;5060067;28;20180;-89
2021/10/10 09:30:04;;;;;;;5.70;5.20;;;;;17.00;99227.00;;;;5059511;28;20620;-89
2021/10/10 09:32:32;;;;;;;5.47;5.07;;;;;17.00;99233.00;;;;5059248;28;20311;-89
2021/10/10 09:34:59;;;;;;;5.40;5.00;;;;;17.00;99235.00;;;;5060142;28;20192;-89
2021/10/10 09:37:46;;;;;;;5.40;4.90;;;;;17.00;99241.00;;;;5059425;28;20207;-89
2021/10/10 09:40:24;;;;;;;5.37;4.90;;;;;17.00;99248.00;;;;5059320;28;20612;-89
2021/10/10 09:42:56;;;;;;;5.90;5.40;;;;;17.00;99228.00;;;;5059270;28;20200;-89
2021/10/10 09:45:39;;;;;;;6.10;5.60;;;;;17.00;99228.00;;;;5059488;28;20187;-89
2021/10/10 09:48:10;;;;;;;7.23;6.53;;;;;17.00;99237.00;;;;5058967;28;20192;-89
2021/10/10 09:50:37;;;;;;;7.27;6.67;;;;;17.00;99235.00;;;;5059288;28;20208;-89
2021/10/10 09:53:06;;;;;;;6.60;6.00;;;;;17.00;99229.00;;;;5058995;28;20215;-89
2021/10/10 09:55:36;;;;;;;105.93;27.20;;;;;17.00;99246.00;;;;5058958;28;20227;-88
2021/10/10 09:58:03;;;;;;;344.03;85.97;;;;;16.90;99239.00;;;;5042716;28;20204;-90
2021/10/10 10:00:33;;;;;;;167.43;45.33;;;;;16.90;99233.00;;;;5042800;28;20203;-89
2021/10/10 10:03:07;;;;;;;111.53;32.20;;;;;16.80;99237.00;;;;5042343;28;20209;-89
2021/10/10 10:05:35;;;;;;;137.03;38.43;;;;;16.80;99232.00;;;;5059320;28;20461;-89
2021/10/10 10:08:02;;;;;;;153.00;40.53;;;;;16.80;99238.00;;;;5058624;28;20529;-89
2021/10/10 10:10:32;;;;;;;93.93;29.13;;;;;16.80;99229.00;;;;5042473;28;20235;-89
2021/10/10 10:13:01;;;;;;;71.17;24.87;;;;;16.80;99231.00;;;;5058417;28;20645;-89
2021/10/10 10:15:29;;;;;;;73.90;24.13;;;;;16.80;99224.00;;;;5059349;28;20201;-90
2021/10/10 10:17:57;;;;;;;82.73;26.20;;;;;16.80;99231.00;;;;5041923;28;20200;-90
2021/10/10 10:20:25;;;;;;;80.47;24.90;;;;;16.80;99215.00;;;;5076097;28;20519;-90
2021/10/10 10:22:54;;;;;;;72.93;24.70;;;;;16.90;99214.00;;;;5058215;28;20189;-90
2021/10/10 10:25:23;;;;;;;69.43;25.60;;;;;16.90;99204.00;;;;5058717;28;20180;-89
2021/10/10 10:27:50;;;;;;;193.73;77.43;;;;;16.90;99205.00;;;;5058248;28;20188;-90
2021/10/10 10:30:20;;;;;;;412.33;125.97;;;;;16.90;99202.00;;;;5058777;28;20200;-90
2021/10/10 10:32:48;;;;;;;224.37;73.90;;;;;16.90;99206.00;;;;5076524;28;20261;-90
2021/10/10 10:35:18;;;;;;;264.40;84.80;;;;;16.90;99211.00;;;;5076060;28;20629;-90
2021/10/10 10:37:45;;;;;;;241.70;78.00;;;;;16.90;99197.00;;;;5058209;28;20195;-90
2021/10/10 10:40:15;;;;;;;242.33;75.00;;;;;17.00;99200.00;;;;5058889;28;20195;-90
2021/10/10 10:42:49;;;;;;;204.17;68.70;;;;;17.00;99192.00;;;;5058534;28;20193;-90
2021/10/10 10:45:27;;;;;;;204.37;67.07;;;;;17.10;99204.00;;;;5058767;28;20184;-91
2021/10/10 10:48:08;;;;;;;172.80;55.40;;;;;17.10;99203.00;;;;5058068;28;20191;-89
2021/10/10 10:50:42;;;;;;;184.70;55.40;;;;;17.10;99190.00;;;;5041312;28;20254;-85
2021/10/10 10:53:13;;;;;;;135.37;45.77;;;;;17.10;99196.00;;;;5058285;28;20318;-91
2021/10/10 10:55:43;;;;;;;141.40;46.93;;;;;17.10;99186.00;;;;5058481;28;20287;-91
2021/10/10 10:58:14;;;;;;;131.40;45.97;;;;;17.10;99194.00;;;;5057702;28;20203;-90
2021/10/10 11:00:42;;;;;;;125.37;45.23;;;;;17.10;99195.00;;;;5041226;28;20189;-90
2021/10/10 11:03:28;;;;;;;109.40;41.63;;;;;17.10;99192.00;;;;5041003;28;20188;-89
2021/10/10 11:06:07;;;;;;;94.97;35.90;;;;;17.20;99194.00;;;;5058013;28;20247;-89
2021/10/10 11:08:36;;;;;;;94.90;35.33;;;;;17.20;99200.00;;;;5057627;28;20177;-89
2021/10/10 11:11:13;;;;;;;92.03;34.83;;;;;17.20;99189.00;;;;5057503;28;20191;-89
2021/10/10 11:13:41;;;;;;;83.70;31.93;;;;;17.10;99197.00;;;;5040854;28;20223;-89
2021/10/10 11:16:16;;;;;;;79.50;31.40;;;;;17.20;99197.00;;;;5075304;28;20196;-89
2021/10/10 11:18:42;;;;;;;79.43;32.80;;;;;17.30;99193.00;;;;5041266;28;20271;-89
2021/10/10 11:21:11;;;;;;;75.37;29.90;;;;;17.30;99200.00;;;;5057419;28;20231;-89
2021/10/10 11:23:38;;;;;;;71.23;32.07;;;;;17.40;99196.00;;;;5057958;28;20201;-89
2021/10/10 11:26:08;;;;;;;69.67;29.77;;;;;17.50;99189.00;;;;5058873;28;20190;-89
2021/10/10 11:28:44;;;;;;;67.33;29.30;;;;;17.50;99192.00;;;;5057285;28;20197;-90
2021/10/10 11:31:19;;;;;;;66.90;28.90;;;;;17.60;99188.00;;;;5075100;28;20187;-90
2021/10/10 11:33:55;;;;;;;54.00;26.87;;;;;17.60;99190.00;;;;5056946;28;20305;-91
2021/10/10 11:36:38;;;;;;;65.17;27.87;;;;;17.60;99192.00;;;;5040655;28;20598;-91
2021/10/10 11:39:28;;;;;;;61.83;27.40;;;;;17.50;99186.00;;;;5040505;28;20188;-92
2021/10/10 11:42:07;;;;;;;57.17;28.57;;;;;17.50;99189.00;;;;5040667;28;20188;-91
2021/10/10 11:44:39;;;;;;;63.73;32.23;;;;;17.50;99189.00;;;;5057136;28;20266;-92
2021/10/10 11:47:17;;;;;;;61.77;30.83;;;;;17.50;99179.00;;;;5040529;28;20193;-91
2021/10/10 11:49:56;;;;;;;62.17;32.43;;;;;17.60;99184.00;;;;5040666;28;20180;-91
2021/10/10 11:52:51;;;;;;;57.27;29.17;;;;;17.70;99179.00;;;;5056916;28;20215;-90
2021/10/10 11:58:00;;;;;;;51.67;26.83;;;;;17.70;99182.00;;;;5057602;28;20192;-90
2021/10/10 12:00:32;;;;;;;54.53;26.53;;;;;17.60;99180.00;;;;5057646;28;20567;-90
2021/10/10 12:03:09;;;;;;;55.30;26.50;;;;;17.60;99174.00;;;;5057605;28;20173;-91
2021/10/10 12:05:44;;;;;;;58.10;27.20;;;;;17.60;99174.00;;;;5041618;28;20477;-91
2021/10/10 12:08:22;;;;;;;45.83;23.73;;;;;17.60;99174.00;;;;5058154;28;20197;-90
2021/10/10 12:10:50;;;;;;;48.27;23.93;;;;;17.50;99167.00;;;;5040557;28;20196;-91
2021/10/10 12:13:19;;;;;;;55.27;28.77;;;;;17.50;99177.00;;;;5057127;28;20237;-90
2021/10/10 12:16:00;;;;;;;60.40;29.93;;;;;17.60;99174.00;;;;5040447;28;20199;-91
2021/10/10 12:18:29;;;;;;;54.43;29.60;;;;;17.60;99163.00;;;;5057138;28;20193;-93
2021/10/10 12:21:17;;;;;;;55.03;28.77;;;;;17.70;99171.00;;;;5057151;28;20547;-92
2021/10/10 12:23:44;;;;;;;52.27;26.37;;;;;17.70;99164.00;;;;5040838;28;20669;-92
2021/10/10 12:26:11;;;;;;;51.23;26.63;;;;;17.70;99160.00;;;;5041374;28;20205;-92